createdAt,value
2022-11-12T00:01:07.752Z,7.04
2022-11-12T00:06:53.992Z,6.98
2022-11-12T00:12:36.745Z,6.94
2022-11-12T00:18:19.763Z,6.90
2022-11-12T00:24:06.806Z,6.86
2022-11-12T00:29:49.794Z,6.82
2022-11-12T00:35:32.772Z,6.80
2022-11-12T00:41:18.793Z,6.78
2022-11-12T00:47:01.756Z,6.74
2022-11-12T00:52:44.781Z,6.72
2022-11-12T00:58:30.790Z,6.70
2022-11-12T01:04:14.800Z,6.67
2022-11-12T01:09:57.794Z,6.67
2022-11-12T01:15:42.813Z,6.64
2022-11-12T01:21:31.775Z,6.65
2022-11-12T01:27:14.798Z,6.63
2022-11-12T01:32:59.834Z,6.60
2022-11-12T01:38:44.813Z,6.56
2022-11-12T01:44:33.800Z,6.53
2022-11-12T01:50:30.802Z,6.46
2022-11-12T01:56:15.857Z,6.43
2022-11-12T02:01:58.817Z,6.41
2022-11-12T02:07:46.820Z,6.41
2022-11-12T02:13:42.969Z,6.42
2022-11-12T02:19:27.913Z,6.40
2022-11-12T02:25:13.827Z,6.39
2022-11-12T02:30:58.830Z,6.41
2022-11-12T02:36:41.857Z,6.42
2022-11-12T02:42:27.972Z,6.38
2022-11-12T02:48:15.228Z,6.36
2022-11-12T02:54:01.829Z,6.35
2022-11-12T02:59:47.864Z,6.35
2022-11-12T03:05:30.831Z,6.31
2022-11-12T03:11:18.859Z,6.23
2022-11-12T03:17:04.851Z,6.10
2022-11-12T03:22:48.875Z,6.04
2022-11-12T03:28:32.904Z,5.93
2022-11-12T03:34:26.881Z,5.81
2022-11-12T03:40:09.889Z,5.69
2022-11-12T03:45:52.912Z,5.58
2022-11-12T03:51:38.883Z,5.53
2022-11-12T03:57:21.853Z,5.37
2022-11-12T04:03:05.867Z,5.28
2022-11-12T04:08:51.895Z,5.16
2022-11-12T04:14:34.897Z,4.97
2022-11-12T04:20:30.885Z,4.75
2022-11-12T04:26:28.884Z,4.60
2022-11-12T04:32:17.899Z,4.51
2022-11-12T04:38:01.895Z,4.43
2022-11-12T04:44:01.888Z,4.33
2022-11-12T04:49:44.877Z,4.18
2022-11-12T04:55:27.881Z,3.98
2022-11-12T05:01:13.931Z,3.86
2022-11-12T05:07:03.067Z,3.84
2022-11-12T05:12:46.892Z,3.81
2022-11-12T05:18:33.052Z,3.79
2022-11-12T05:24:33.982Z,3.77
2022-11-12T05:30:20.908Z,3.71
2022-11-12T05:36:07.947Z,3.66
2022-11-12T05:42:11.949Z,3.59
2022-11-12T05:47:56.932Z,3.57
2022-11-12T05:53:42.928Z,3.54
2022-11-12T05:59:25.910Z,3.54
2022-11-12T06:05:09.077Z,3.54
2022-11-12T06:10:57.983Z,3.63
2022-11-12T06:16:40.978Z,3.67
2022-11-12T06:22:25.030Z,3.76
2022-11-12T06:28:11.000Z,3.76
2022-11-12T06:33:54.976Z,3.74
2022-11-12T06:39:37.908Z,3.78
2022-11-12T06:45:23.941Z,3.80
2022-11-12T06:51:06.920Z,3.80
2022-11-12T06:56:49.957Z,3.84
2022-11-12T07:02:34.956Z,3.85
2022-11-12T07:08:11.950Z,3.91
2022-11-12T07:13:55.947Z,3.98
2022-11-12T07:19:41.977Z,4.15
2022-11-12T07:25:24.928Z,4.34
2022-11-12T07:31:12.951Z,4.43
2022-11-12T07:36:59.947Z,4.50
2022-11-12T07:42:43.952Z,4.58
2022-11-12T07:48:28.172Z,4.66
2022-11-12T07:54:14.982Z,4.69
2022-11-12T07:59:57.971Z,4.80
2022-11-12T08:05:40.987Z,4.90
2022-11-12T08:11:26.945Z,5.06
2022-11-12T08:17:09.973Z,5.22
2022-11-12T08:22:52.960Z,5.41
2022-11-12T08:28:38.984Z,5.59
2022-11-12T08:34:28.002Z,5.77
2022-11-12T08:40:11.018Z,5.94
2022-11-12T08:45:57.012Z,6.13
2022-11-12T08:51:40.008Z,6.30
2022-11-12T08:57:23.031Z,6.49
2022-11-12T09:03:12.113Z,6.68
2022-11-12T09:08:55.003Z,6.87
2022-11-12T09:14:38.028Z,7.08
2022-11-12T09:20:25.011Z,7.25
2022-11-12T09:26:08.026Z,7.52
2022-11-12T09:31:51.081Z,7.74
2022-11-12T09:37:37.021Z,8.01
2022-11-12T09:43:33.235Z,8.26
2022-11-12T09:49:22.015Z,8.48
2022-11-12T09:55:16.001Z,8.72
2022-11-12T10:01:06.074Z,8.98
2022-11-12T10:06:56.075Z,9.24
2022-11-12T10:12:53.073Z,9.48
2022-11-12T10:18:55.166Z,9.69
2022-11-12T10:24:45.213Z,9.89
2022-11-12T10:30:38.063Z,10.02
2022-11-12T10:36:44.147Z,10.18
2022-11-12T10:42:29.060Z,10.34
2022-11-12T10:48:15.054Z,10.53
2022-11-12T10:53:58.055Z,10.73
2022-11-12T10:59:42.066Z,11.01
2022-11-12T11:05:44.083Z,11.29
2022-11-12T11:11:40.064Z,11.51
2022-11-12T11:17:27.054Z,11.82
2022-11-12T11:23:18.181Z,12.01
2022-11-12T11:29:10.070Z,12.21
2022-11-12T11:35:09.102Z,12.38
2022-11-12T11:41:05.095Z,12.53
2022-11-12T11:47:01.106Z,12.67
2022-11-12T11:52:55.219Z,12.78
2022-11-12T11:59:01.066Z,12.97
2022-11-12T12:05:02.097Z,13.11
2022-11-12T12:11:09.288Z,13.19
2022-11-12T12:17:08.084Z,13.29
2022-11-12T12:22:56.098Z,13.35
2022-11-12T12:28:50.114Z,13.34
2022-11-12T12:34:41.144Z,13.33
2022-11-12T12:40:33.134Z,13.32
2022-11-12T12:46:20.139Z,13.30
2022-11-12T12:52:06.234Z,13.28
2022-11-12T12:57:50.121Z,13.32
2022-11-12T13:04:02.243Z,13.37
2022-11-12T13:09:47.111Z,13.38
2022-11-12T13:15:31.129Z,13.46
2022-11-12T13:21:21.211Z,13.56
2022-11-12T13:27:12.130Z,13.68
2022-11-12T13:33:07.673Z,13.78
2022-11-12T13:38:57.600Z,13.82
2022-11-12T13:44:49.930Z,13.84
2022-11-12T13:50:40.661Z,13.79
2022-11-12T13:56:36.149Z,13.65
2022-11-12T14:02:41.244Z,13.58
2022-11-12T14:08:48.141Z,13.39
2022-11-12T14:14:42.218Z,13.38
2022-11-12T14:20:37.193Z,13.32
2022-11-12T14:26:20.189Z,13.29
2022-11-12T14:32:11.161Z,13.17
2022-11-12T14:38:05.169Z,13.06
2022-11-12T14:44:11.088Z,12.92
2022-11-12T14:49:50.176Z,12.76
2022-11-12T14:55:40.210Z,12.56
2022-11-12T15:07:40.183Z,12.14
2022-11-12T15:13:29.489Z,11.95
2022-11-12T15:19:36.195Z,11.78
2022-11-12T15:25:21.238Z,11.57
2022-11-12T15:31:23.198Z,11.36
2022-11-12T15:37:07.198Z,11.19
2022-11-12T15:42:54.224Z,11.04
2022-11-12T15:48:40.233Z,10.92
2022-11-12T15:54:23.245Z,10.79
2022-11-12T16:00:11.202Z,10.65
2022-11-12T16:05:59.115Z,10.34
2022-11-12T16:11:47.220Z,10.22
2022-11-12T16:17:32.230Z,10.08
2022-11-12T16:23:18.620Z,9.95
2022-11-12T16:29:02.277Z,9.88
2022-11-12T16:34:46.261Z,9.81
2022-11-12T16:40:34.301Z,9.73
2022-11-12T16:46:24.273Z,9.61
2022-11-12T16:52:08.644Z,9.47
2022-11-12T16:57:54.266Z,9.38
2022-11-12T17:03:43.243Z,9.29
2022-11-12T17:09:27.288Z,9.17
2022-11-12T17:15:13.254Z,9.01
2022-11-12T17:20:56.257Z,8.84
2022-11-12T17:26:40.289Z,8.73
2022-11-12T17:32:26.397Z,8.61
2022-11-12T17:38:11.119Z,8.53
2022-11-12T17:43:54.311Z,8.51
2022-11-12T17:49:42.755Z,8.46
2022-11-12T17:55:25.366Z,8.45
2022-11-12T18:01:22.350Z,8.30
2022-11-12T18:07:08.384Z,8.14
2022-11-12T18:12:52.659Z,8.05
2022-11-12T18:18:36.805Z,8.02
2022-11-12T18:24:27.324Z,7.97
2022-11-12T18:30:13.817Z,7.90
2022-11-12T18:35:53.386Z,7.80
2022-11-12T18:41:40.291Z,7.72
2022-11-12T18:47:24.293Z,7.64
2022-11-12T18:53:07.341Z,7.59
2022-11-12T18:58:53.320Z,7.56
2022-11-12T19:04:45.409Z,7.48
2022-11-12T19:10:29.384Z,7.43
2022-11-12T19:16:20.325Z,7.39
2022-11-12T19:22:03.327Z,7.30
2022-11-12T19:27:46.380Z,7.20
2022-11-12T19:33:32.309Z,7.11
2022-11-12T19:39:17.364Z,7.01
2022-11-12T19:45:00.389Z,6.90
2022-11-12T19:50:46.365Z,6.76
2022-11-12T19:56:30.334Z,6.63
2022-11-12T20:02:13.357Z,6.51
2022-11-12T20:08:00.350Z,6.46
2022-11-12T20:13:43.352Z,6.38
2022-11-12T20:19:27.446Z,6.29
2022-11-12T20:25:14.408Z,6.16
2022-11-12T20:30:58.380Z,6.07
2022-11-12T20:36:42.477Z,5.98
2022-11-12T20:42:28.387Z,5.84
2022-11-12T20:48:11.439Z,5.74
2022-11-12T20:53:59.230Z,5.69
2022-11-12T20:59:51.327Z,5.62
2022-11-12T21:05:40.379Z,5.50
2022-11-12T21:11:26.349Z,5.41
2022-11-12T21:17:11.433Z,5.31
2022-11-12T21:22:54.360Z,5.22
2022-11-12T21:28:37.393Z,5.17
2022-11-12T21:34:23.389Z,5.15
2022-11-12T21:40:07.465Z,5.10
2022-11-12T21:45:55.381Z,5.04
2022-11-12T21:51:43.365Z,5.00
2022-11-12T21:57:26.396Z,4.93
2022-11-12T22:03:15.615Z,4.90
2022-11-12T22:09:08.278Z,4.88
2022-11-12T22:14:56.749Z,4.86
2022-11-12T22:20:44.202Z,4.82
2022-11-12T22:26:37.782Z,4.78
2022-11-12T22:32:32.302Z,4.75
2022-11-12T22:38:30.957Z,4.73
2022-11-12T22:44:41.914Z,4.74
2022-11-12T22:50:26.960Z,4.70
2022-11-12T22:56:34.435Z,4.63
2022-11-12T23:02:34.629Z,4.62
2022-11-12T23:08:22.820Z,4.58
2022-11-12T23:14:21.215Z,4.54
2022-11-12T23:20:18.592Z,4.48
2022-11-12T23:26:01.419Z,4.43
2022-11-12T23:31:46.474Z,4.39
2022-11-12T23:37:34.785Z,4.39
2022-11-12T23:43:30.949Z,4.37
2022-11-12T23:49:17.009Z,4.37
2022-11-12T23:55:08.784Z,4.35
